Time;durP1;ratioP1;P1;durP2;ratioP2;P2;SDS_P1;SDS_P2;PMS_P1;PMS_P2;Temp;Humidity;BMP_temperature;BMP_pressure;BME280_temperature;BME280_humidity;BME280_pressure;Samples;Min_cycle;Max_cycle;Signal;HPM_P1;HPM_P2
2023/12/07 00:01:17;;;;;;;14.48;5.45;;;28.40;99.90;;;;;;5032030;28;20209;-80
2023/12/07 00:03:48;;;;;;;10.98;4.63;;;28.50;99.90;;;;;;5032180;28;20200;-79
2023/12/07 00:06:19;;;;;;;16.15;5.40;;;28.50;99.90;;;;;;5032439;28;20197;-79
2023/12/07 00:08:51;;;;;;;19.02;5.55;;;28.50;99.90;;;;;;5032415;28;20606;-79
2023/12/07 00:11:25;;;;;;;20.13;5.13;;;28.40;99.90;;;;;;5031591;28;20225;-78
2023/12/07 00:13:55;;;;;;;16.52;4.75;;;28.40;99.90;;;;;;5031924;28;20201;-79
2023/12/07 00:16:26;;;;;;;17.60;4.70;;;28.00;99.90;;;;;;5032135;28;20215;-79
2023/12/07 00:18:57;;;;;;;15.88;5.45;;;28.00;99.90;;;;;;5031043;28;20197;-78
2023/12/07 00:21:28;;;;;;;23.02;5.60;;;27.70;99.90;;;;;;5028529;28;20263;-79
2023/12/07 00:23:58;;;;;;;13.90;5.03;;;27.60;99.90;;;;;;5031003;28;20221;-78
2023/12/07 00:26:31;;;;;;;15.95;5.43;;;27.70;99.90;;;;;;5044529;28;20214;-79
2023/12/07 00:29:02;;;;;;;17.38;5.32;;;27.60;99.90;;;;;;5047206;28;20235;-78
2023/12/07 00:31:33;;;;;;;17.48;6.30;;;27.40;99.90;;;;;;5045733;28;20695;-78
2023/12/07 00:34:07;;;;;;;11.80;5.55;;;27.30;99.90;;;;;;5033122;28;20193;-78
2023/12/07 00:36:39;;;;;;;16.40;5.80;;;27.00;99.90;;;;;;5031825;28;20228;-78
2023/12/07 00:39:10;;;;;;;12.85;6.25;;;26.80;99.90;;;;;;5032215;28;20605;-79
2023/12/07 00:41:43;;;;;;;16.10;5.70;;;26.40;99.90;;;;;;5032494;28;20240;-78
2023/12/07 00:44:14;;;;;;;15.80;5.90;;;26.20;99.90;;;;;;5031578;28;20702;-77
2023/12/07 00:46:45;;;;;;;17.88;6.65;;;26.30;99.90;;;;;;5031549;28;20572;-77
2023/12/07 00:49:16;;;;;;;18.80;6.18;;;26.30;99.90;;;;;;5031103;28;20197;-78
2023/12/07 00:51:47;;;;;;;14.60;5.88;;;26.30;99.90;;;;;;5030955;28;20229;-77
2023/12/07 00:54:20;;;;;;;14.40;5.70;;;26.30;99.90;;;;;;5031443;28;20197;-78
2023/12/07 00:56:53;;;;;;;16.83;6.05;;;26.20;99.90;;;;;;5031471;28;20803;-78
2023/12/07 00:59:24;;;;;;;20.85;6.10;;;26.30;99.90;;;;;;5031275;28;20193;-79
2023/12/07 01:01:54;;;;;;;18.83;5.97;;;26.40;99.90;;;;;;5031241;28;20288;-79
2023/12/07 01:04:25;;;;;;;20.75;6.18;;;26.40;99.90;;;;;;5030759;28;20540;-79
2023/12/07 01:06:56;;;;;;;18.95;5.72;;;26.20;99.90;;;;;;5031355;28;20208;-78
2023/12/07 01:09:27;;;;;;;15.80;6.05;;;26.20;99.90;;;;;;5031366;28;20201;-78
2023/12/07 01:12:00;;;;;;;15.98;6.18;;;26.20;99.90;;;;;;5046173;28;20229;-79
2023/12/07 01:14:30;;;;;;;16.60;6.50;;;26.10;99.90;;;;;;5031117;28;20292;-78
2023/12/07 01:17:02;;;;;;;16.75;6.55;;;26.10;99.90;;;;;;5021041;28;20628;-79
2023/12/07 01:19:33;;;;;;;18.65;6.43;;;26.10;99.90;;;;;;5051183;28;20291;-79
2023/12/07 01:22:04;;;;;;;18.67;6.40;;;26.20;99.90;;;;;;5050990;28;20220;-79
2023/12/07 01:24:34;;;;;;;18.75;6.15;;;26.40;99.90;;;;;;5050882;28;20282;-79
2023/12/07 01:27:07;;;;;;;20.00;5.97;;;26.40;99.90;;;;;;5031937;28;20567;-78
2023/12/07 01:29:38;;;;;;;20.73;6.47;;;26.50;99.90;;;;;;5030671;28;20197;-78
2023/12/07 01:32:10;;;;;;;15.98;6.10;;;26.70;99.90;;;;;;5030711;28;20706;-77
2023/12/07 01:34:40;;;;;;;16.83;6.88;;;27.00;99.90;;;;;;5031003;28;20692;-77
2023/12/07 01:37:11;;;;;;;16.27;6.00;;;27.30;99.90;;;;;;5031016;28;20205;-77
2023/12/07 01:39:44;;;;;;;14.82;6.18;;;27.70;99.90;;;;;;5041886;28;20197;-77
2023/12/07 01:42:16;;;;;;;19.45;6.60;;;27.70;99.90;;;;;;5053696;28;20205;-78
2023/12/07 01:44:47;;;;;;;15.00;5.90;;;27.80;99.90;;;;;;5050864;28;20235;-78
2023/12/07 01:47:18;;;;;;;15.70;6.35;;;27.50;99.90;;;;;;5031546;28;20288;-78
2023/12/07 01:49:50;;;;;;;18.05;6.82;;;27.30;99.90;;;;;;5030653;28;20193;-78
2023/12/07 01:52:22;;;;;;;19.40;7.43;;;27.40;99.90;;;;;;5031963;28;20759;-77
2023/12/07 01:54:53;;;;;;;20.83;6.45;;;27.70;99.90;;;;;;5030534;28;20247;-77
2023/12/07 01:57:26;;;;;;;18.95;7.05;;;27.80;99.90;;;;;;5030142;28;20205;-78
2023/12/07 01:59:57;;;;;;;17.17;6.32;;;27.40;99.90;;;;;;5030076;28;20205;-77
2023/12/07 02:02:28;;;;;;;19.08;6.50;;;27.10;99.90;;;;;;5030090;28;20216;-77
2023/12/07 02:04:59;;;;;;;20.75;7.25;;;26.90;99.90;;;;;;5030113;28;20202;-78
2023/12/07 02:07:30;;;;;;;20.52;6.80;;;26.90;99.90;;;;;;5030281;28;20271;-78
2023/12/07 02:10:01;;;;;;;15.02;5.88;;;27.10;99.90;;;;;;5030257;28;20201;-78
2023/12/07 02:12:34;;;;;;;20.15;6.70;;;27.30;99.90;;;;;;5030498;28;20707;-77
2023/12/07 02:15:06;;;;;;;18.27;6.80;;;27.20;99.90;;;;;;5033744;28;20559;-78
2023/12/07 02:17:48;;;;;;;20.80;6.07;;;27.30;99.90;;;;;;5033311;28;20318;-78
2023/12/07 02:20:24;;;;;;;20.42;6.80;;;27.20;99.90;;;;;;5033348;28;20251;-78
2023/12/07 02:22:58;;;;;;;16.27;6.88;;;27.20;99.90;;;;;;5033345;28;20248;-78
2023/12/07 02:25:34;;;;;;;17.35;7.10;;;27.20;99.90;;;;;;5033030;28;20283;-78
2023/12/07 02:28:07;;;;;;;18.92;7.18;;;27.20;99.90;;;;;;5033489;28;20751;-77
2023/12/07 02:30:37;;;;;;;16.42;6.20;;;27.20;99.90;;;;;;5033137;28;20193;-78
2023/12/07 02:33:08;;;;;;;21.17;6.80;;;27.00;99.90;;;;;;5032496;28;20247;-78
2023/12/07 02:35:40;;;;;;;26.17;7.22;;;26.80;99.90;;;;;;5032813;28;20213;-78
2023/12/07 02:38:11;;;;;;;22.85;7.13;;;26.80;99.90;;;;;;5036381;28;20243;-77
2023/12/07 02:40:43;;;;;;;27.13;8.68;;;26.40;99.90;;;;;;5033890;28;20668;-78
2023/12/07 02:43:16;;;;;;;24.13;9.05;;;26.30;99.90;;;;;;5032893;28;20251;-77
2023/12/07 02:45:47;;;;;;;21.60;9.30;;;26.40;99.90;;;;;;5032442;28;20229;-77
2023/12/07 02:48:17;;;;;;;25.92;11.00;;;26.30;99.90;;;;;;5033070;28;20197;-77
2023/12/07 02:50:48;;;;;;;22.00;10.05;;;26.50;99.90;;;;;;5032861;28;20239;-77
2023/12/07 02:53:19;;;;;;;22.50;11.43;;;26.60;99.90;;;;;;5033439;28;20316;-78
2023/12/07 02:55:50;;;;;;;26.80;12.93;;;26.40;99.90;;;;;;5039476;28;20236;-77
2023/12/07 02:58:23;;;;;;;25.77;12.63;;;26.40;99.90;;;;;;5047225;28;20243;-77
2023/12/07 03:00:54;;;;;;;22.88;12.15;;;26.60;99.90;;;;;;5036563;28;20240;-78
2023/12/07 03:03:25;;;;;;;24.38;11.73;;;26.50;99.90;;;;;;5033916;28;20234;-78
2023/12/07 03:05:56;;;;;;;25.50;12.52;;;26.40;99.90;;;;;;5033787;28;20208;-79
2023/12/07 03:08:28;;;;;;;24.45;12.60;;;26.40;99.90;;;;;;5032929;28;20550;-77
2023/12/07 03:10:58;;;;;;;19.98;12.38;;;26.40;99.90;;;;;;5044276;28;20238;-78
2023/12/07 03:13:31;;;;;;;28.15;13.93;;;26.60;99.90;;;;;;5044653;28;20236;-78
2023/12/07 03:16:02;;;;;;;28.13;15.55;;;26.80;99.90;;;;;;5013292;28;20183;-79
2023/12/07 03:18:33;;;;;;;31.52;15.82;;;26.80;99.90;;;;;;5013080;28;20640;-78
2023/12/07 03:21:06;;;;;;;31.75;16.38;;;26.80;99.90;;;;;;5013016;28;20281;-78
2023/12/07 03:23:36;;;;;;;26.02;14.15;;;27.00;99.90;;;;;;5012876;28;20198;-78
2023/12/07 03:26:07;;;;;;;22.52;12.13;;;27.00;99.90;;;;;;5031135;28;20213;-78
2023/12/07 03:28:40;;;;;;;19.98;10.30;;;27.10;99.90;;;;;;5032358;28;20751;-78
2023/12/07 03:31:11;;;;;;;23.50;10.23;;;27.30;99.90;;;;;;5032101;28;20207;-78
2023/12/07 03:33:43;;;;;;;19.20;8.43;;;27.30;99.90;;;;;;5032197;28;20225;-79
2023/12/07 03:36:15;;;;;;;17.33;7.57;;;27.20;99.90;;;;;;5032527;28;20193;-76
2023/12/07 03:38:46;;;;;;;15.07;5.63;;;27.40;99.90;;;;;;5032157;28;20758;-78
2023/12/07 03:41:17;;;;;;;18.52;5.88;;;27.40;99.90;;;;;;5031909;28;20555;-78
2023/12/07 03:43:50;;;;;;;20.02;5.32;;;27.30;99.90;;;;;;5032042;28;20201;-78
2023/12/07 03:46:21;;;;;;;14.57;4.60;;;27.00;99.90;;;;;;5032052;28;20310;-78
2023/12/07 03:48:51;;;;;;;16.38;4.85;;;26.90;99.90;;;;;;5032229;28;20236;-79
2023/12/07 03:51:22;;;;;;;17.58;4.45;;;27.20;99.90;;;;;;5031733;28;20287;-79
2023/12/07 03:53:53;;;;;;;15.55;4.43;;;27.40;99.90;;;;;;5032162;28;20225;-78
2023/12/07 03:56:30;;;;;;;17.42;3.80;;;27.50;99.90;;;;;;5031981;28;20559;-80
2023/12/07 03:59:03;;;;;;;15.95;4.13;;;27.50;99.90;;;;;;5031864;28;20200;-79
2023/12/07 04:01:34;;;;;;;17.02;3.97;;;27.60;99.90;;;;;;5032352;28;20208;-79
2023/12/07 04:04:05;;;;;;;15.18;4.20;;;27.30;99.90;;;;;;5032842;28;20197;-78
2023/12/07 04:06:35;;;;;;;18.30;3.92;;;27.00;99.90;;;;;;5048382;28;20208;-78
2023/12/07 04:09:06;;;;;;;17.60;4.13;;;27.00;99.90;;;;;;5039621;28;20201;-79
2023/12/07 04:11:37;;;;;;;16.63;3.80;;;27.20;99.90;;;;;;5037650;28;20563;-79
2023/12/07 04:14:10;;;;;;;14.82;3.50;;;27.20;99.90;;;;;;5040549;28;20304;-78
2023/12/07 04:16:41;;;;;;;17.05;3.38;;;27.20;99.90;;;;;;5032335;28;20637;-77
2023/12/07 04:19:11;;;;;;;17.20;3.58;;;26.90;99.90;;;;;;5031345;28;20204;-77
2023/12/07 04:21:42;;;;;;;13.15;3.42;;;26.70;99.90;;;;;;5031031;28;20197;-77
2023/12/07 04:24:13;;;;;;;16.55;3.17;;;26.90;99.90;;;;;;5030988;28;20599;-78
2023/12/07 04:26:44;;;;;;;16.98;3.80;;;26.90;99.90;;;;;;5031683;28;20212;-79
2023/12/07 04:29:16;;;;;;;14.00;3.58;;;26.90;99.90;;;;;;5031120;28;20307;-79
2023/12/07 04:31:47;;;;;;;16.48;3.55;;;26.70;99.90;;;;;;5031111;28;20201;-78
2023/12/07 04:34:18;;;;;;;17.92;3.60;;;26.60;99.90;;;;;;5030852;28;20312;-78
2023/12/07 04:36:48;;;;;;;17.85;4.10;;;26.60;99.90;;;;;;5031334;28;20252;-79
2023/12/07 04:39:19;;;;;;;13.32;2.95;;;26.40;99.90;;;;;;5030568;28;20276;-77
2023/12/07 04:41:50;;;;;;;15.70;3.13;;;26.40;99.90;;;;;;5030840;28;20197;-77
2023/12/07 04:44:25;;;;;;;14.35;3.45;;;26.80;99.90;;;;;;5030764;28;20201;-77
2023/12/07 04:46:56;;;;;;;11.77;3.10;;;27.00;99.90;;;;;;5030843;28;20196;-77
2023/12/07 04:49:27;;;;;;;13.38;3.53;;;27.20;99.90;;;;;;5030559;28;20619;-77
2023/12/07 04:51:57;;;;;;;12.45;3.30;;;27.30;99.90;;;;;;5030427;28;20599;-77
2023/12/07 04:54:31;;;;;;;17.42;3.70;;;27.60;99.90;;;;;;5030557;28;20646;-77
2023/12/07 04:57:02;;;;;;;21.55;3.90;;;27.90;99.90;;;;;;5030286;28;20197;-78
2023/12/07 04:59:34;;;;;;;15.48;3.42;;;27.80;99.90;;;;;;5030394;28;20747;-77
2023/12/07 05:02:06;;;;;;;15.77;3.40;;;28.10;99.90;;;;;;5030726;28;20217;-77
2023/12/07 05:04:36;;;;;;;15.05;3.50;;;28.20;99.90;;;;;;5030647;28;20295;-77
2023/12/07 05:07:07;;;;;;;14.38;3.30;;;28.10;99.90;;;;;;5035464;28;20207;-77
2023/12/07 05:09:38;;;;;;;15.05;3.25;;;28.10;99.90;;;;;;5030728;28;20281;-78
2023/12/07 05:12:09;;;;;;;14.50;3.13;;;28.20;99.90;;;;;;5030571;28;20215;-78
2023/12/07 05:14:42;;;;;;;12.77;3.03;;;28.00;99.90;;;;;;5030284;28;20711;-78
2023/12/07 05:17:13;;;;;;;11.88;3.38;;;27.80;99.90;;;;;;5030611;28;20207;-78
2023/12/07 05:19:44;;;;;;;16.55;3.38;;;27.40;99.90;;;;;;5030631;28;20284;-77
2023/12/07 05:22:16;;;;;;;17.13;3.45;;;27.20;99.90;;;;;;5046968;28;20201;-77
2023/12/07 05:24:47;;;;;;;16.92;3.60;;;27.00;99.90;;;;;;5052242;28;20244;-77
2023/12/07 05:27:18;;;;;;;15.73;3.22;;;26.90;99.90;;;;;;5045151;28;20213;-77
2023/12/07 05:29:51;;;;;;;14.20;3.70;;;26.70;99.90;;;;;;5032114;28;20189;-77
2023/12/07 05:32:22;;;;;;;13.07;3.30;;;26.70;99.90;;;;;;5033432;28;20220;-77
2023/12/07 05:34:52;;;;;;;16.77;3.40;;;26.80;99.90;;;;;;5044513;28;20232;-78
2023/12/07 05:37:26;;;;;;;21.05;3.50;;;26.70;99.90;;;;;;5032758;28;20207;-78
2023/12/07 05:39:56;;;;;;;17.95;3.50;;;26.70;99.90;;;;;;5030742;28;20185;-77
2023/12/07 05:42:27;;;;;;;14.07;3.75;;;26.70;99.90;;;;;;5030064;28;20319;-78
2023/12/07 05:45:00;;;;;;;12.90;3.10;;;26.80;99.90;;;;;;5030090;28;20240;-78
2023/12/07 05:47:31;;;;;;;14.75;3.92;;;26.90;99.90;;;;;;5030333;28;20228;-78
2023/12/07 05:50:03;;;;;;;14.70;3.28;;;27.10;99.90;;;;;;5034049;28;20219;-78
2023/12/07 05:52:33;;;;;;;14.65;3.72;;;27.70;99.90;;;;;;5054348;28;20201;-77
2023/12/07 05:55:04;;;;;;;16.30;4.03;;;28.10;99.90;;;;;;5054266;28;20232;-78
2023/12/07 05:57:35;;;;;;;15.82;3.10;;;28.50;99.90;;;;;;5048116;28;20211;-76
2023/12/07 06:00:09;;;;;;;16.20;3.35;;;28.60;99.90;;;;;;5035116;28;20217;-78
2023/12/07 06:02:42;;;;;;;11.35;3.22;;;28.80;99.90;;;;;;5034814;28;20280;-78
2023/12/07 06:05:13;;;;;;;15.68;3.17;;;29.10;99.90;;;;;;5034659;28;20722;-78
2023/12/07 06:07:45;;;;;;;14.25;3.20;;;29.30;99.90;;;;;;5034156;28;20205;-78
2023/12/07 06:10:16;;;;;;;14.32;3.22;;;29.20;99.90;;;;;;5034097;28;20193;-77
2023/12/07 06:12:47;;;;;;;17.13;3.22;;;29.10;99.90;;;;;;5034702;28;20236;-78
2023/12/07 06:15:20;;;;;;;13.48;3.53;;;29.00;99.90;;;;;;5034455;28;20668;-78
2023/12/07 06:17:51;;;;;;;14.27;3.20;;;28.90;99.90;;;;;;5034704;28;20205;-78
2023/12/07 06:20:23;;;;;;;17.42;3.03;;;28.60;99.90;;;;;;5034328;28;20667;-78
2023/12/07 06:22:54;;;;;;;16.45;3.75;;;28.40;99.90;;;;;;5033357;28;20197;-78
2023/12/07 06:25:26;;;;;;;14.23;3.20;;;28.30;99.90;;;;;;5033375;28;20259;-78
2023/12/07 06:27:57;;;;;;;12.73;3.17;;;28.50;99.90;;;;;;5033682;28;20626;-78
2023/12/07 06:30:30;;;;;;;15.20;3.20;;;28.60;99.90;;;;;;5034264;28;20196;-78
2023/12/07 06:33:02;;;;;;;10.82;2.90;;;28.80;99.90;;;;;;5026360;28;20189;-78
2023/12/07 06:35:33;;;;;;;11.50;3.00;;;28.50;99.90;;;;;;5053118;28;20256;-79
2023/12/07 06:38:04;;;;;;;13.32;3.13;;;28.30;99.90;;;;;;5053774;28;20284;-78
2023/12/07 06:40:35;;;;;;;13.63;3.22;;;27.80;99.90;;;;;;5052147;28;20201;-79
2023/12/07 06:43:07;;;;;;;15.07;3.00;;;27.40;99.90;;;;;;5036205;28;20215;-79
2023/12/07 06:45:40;;;;;;;13.02;3.30;;;27.20;99.90;;;;;;5034071;28;20225;-79
2023/12/07 06:48:11;;;;;;;15.10;3.33;;;27.10;99.90;;;;;;5035354;28;20620;-79
2023/12/07 06:50:42;;;;;;;15.38;3.28;;;27.20;99.90;;;;;;5033955;28;20204;-79
2023/12/07 06:53:14;;;;;;;12.60;2.88;;;27.00;99.90;;;;;;5033531;28;20204;-80
2023/12/07 06:55:45;;;;;;;13.63;3.15;;;26.70;99.90;;;;;;5033700;28;20292;-80
2023/12/07 06:58:17;;;;;;;14.93;3.60;;;26.50;99.90;;;;;;5033339;28;20201;-79
2023/12/07 07:00:50;;;;;;;12.07;2.95;;;26.40;99.90;;;;;;5042534;28;20223;-79
2023/12/07 07:03:22;;;;;;;14.23;3.60;;;26.30;99.90;;;;;;5033928;28;20197;-79
2023/12/07 07:05:53;;;;;;;16.25;3.38;;;26.10;99.90;;;;;;5033121;28;20654;-79
2023/12/07 07:08:24;;;;;;;16.85;3.90;;;26.10;99.90;;;;;;5028434;28;20233;-79
2023/12/07 07:10:56;;;;;;;13.93;3.55;;;26.20;99.90;;;;;;5033421;28;20203;-79
2023/12/07 07:13:27;;;;;;;11.60;3.60;;;26.20;99.90;;;;;;5032699;28;20201;-79
2023/12/07 07:16:00;;;;;;;13.68;3.50;;;26.40;99.90;;;;;;5032697;28;20204;-79
2023/12/07 07:18:31;;;;;;;19.25;3.63;;;26.80;99.90;;;;;;5031861;28;20235;-79
2023/12/07 07:21:04;;;;;;;15.13;3.47;;;26.80;99.90;;;;;;5032355;28;20207;-78
2023/12/07 07:23:36;;;;;;;14.40;3.22;;;26.80;99.90;;;;;;5032194;28;20319;-78
2023/12/07 07:26:08;;;;;;;13.95;3.45;;;26.90;99.90;;;;;;5032767;28;20201;-78
2023/12/07 07:28:39;;;;;;;19.77;3.25;;;26.90;99.90;;;;;;5031990;28;20193;-78
2023/12/07 07:31:12;;;;;;;12.25;3.13;;;26.70;99.90;;;;;;5032370;28;20204;-78
2023/12/07 07:33:43;;;;;;;14.77;3.42;;;26.80;99.90;;;;;;5031490;28;20221;-78
2023/12/07 07:36:15;;;;;;;13.68;3.80;;;26.70;99.90;;;;;;5031629;28;20240;-78
2023/12/07 07:38:46;;;;;;;12.63;3.25;;;26.60;99.90;;;;;;5031907;28;20332;-79
2023/12/07 07:41:17;;;;;;;12.63;3.60;;;26.70;99.90;;;;;;5031353;28;20208;-78
2023/12/07 07:43:48;;;;;;;13.43;3.83;;;26.60;99.90;;;;;;5029800;28;20206;-78
2023/12/07 07:46:22;;;;;;;12.02;3.33;;;26.60;99.90;;;;;;5031639;28;20606;-78
2023/12/07 07:48:53;;;;;;;17.90;3.60;;;26.50;99.90;;;;;;5032913;28;20221;-78
2023/12/07 07:51:24;;;;;;;13.30;3.45;;;26.40;99.90;;;;;;5033233;28;20281;-78
2023/12/07 07:53:55;;;;;;;9.52;3.17;;;26.30;99.90;;;;;;5033712;28;20239;-78
2023/12/07 07:56:27;;;;;;;14.35;3.67;;;26.30;99.90;;;;;;5032319;28;20288;-78
2023/12/07 07:59:00;;;;;;;12.18;3.85;;;26.20;99.90;;;;;;5031510;28;20193;-78
2023/12/07 08:01:33;;;;;;;12.45;4.15;;;26.10;99.90;;;;;;5031840;28;20220;-78
2023/12/07 08:04:04;;;;;;;11.88;3.60;;;26.10;99.90;;;;;;5029858;28;20280;-78
2023/12/07 08:06:36;;;;;;;13.73;3.50;;;26.00;99.90;;;;;;5022838;28;20223;-77
2023/12/07 08:09:07;;;;;;;13.85;3.97;;;25.90;99.90;;;;;;5022212;28;20614;-78
2023/12/07 08:11:39;;;;;;;13.18;4.20;;;25.80;99.90;;;;;;5031167;28;20226;-79
2023/12/07 08:14:10;;;;;;;13.43;4.05;;;25.80;99.90;;;;;;5030476;28;20574;-78
2023/12/07 08:16:47;;;;;;;14.40;3.85;;;25.80;99.90;;;;;;5031250;28;20668;-77
2023/12/07 08:19:19;;;;;;;15.48;5.10;;;25.80;99.90;;;;;;5031346;28;20259;-78
2023/12/07 08:21:50;;;;;;;14.55;5.07;;;25.70;99.90;;;;;;5031303;28;20201;-79
2023/12/07 08:24:21;;;;;;;14.63;5.40;;;25.60;99.90;;;;;;5043611;28;20201;-79
2023/12/07 08:26:52;;;;;;;14.77;4.70;;;25.60;99.90;;;;;;5031200;28;20197;-78
2023/12/07 08:29:23;;;;;;;16.10;4.68;;;25.60;99.90;;;;;;5030984;28;20201;-78
2023/12/07 08:31:56;;;;;;;13.45;4.15;;;25.50;99.90;;;;;;5030085;28;20205;-78
2023/12/07 08:34:28;;;;;;;14.85;4.10;;;25.50;99.90;;;;;;5011377;28;20261;-79
2023/12/07 08:36:59;;;;;;;15.98;4.28;;;25.40;99.90;;;;;;5011477;28;20572;-78
2023/12/07 08:39:30;;;;;;;14.63;3.55;;;25.40;99.90;;;;;;5011228;28;20202;-78
2023/12/07 08:42:01;;;;;;;15.25;4.00;;;25.20;99.90;;;;;;5011235;28;20213;-78
2023/12/07 08:44:32;;;;;;;15.07;3.53;;;25.20;99.90;;;;;;5010983;28;20248;-78
2023/12/07 08:47:06;;;;;;;13.75;3.83;;;25.20;99.90;;;;;;5013339;28;20234;-78
2023/12/07 08:49:37;;;;;;;15.60;4.07;;;25.20;99.90;;;;;;5031057;28;20713;-78
2023/12/07 08:52:08;;;;;;;15.32;4.18;;;25.10;99.90;;;;;;5031211;28;20224;-79
2023/12/07 08:54:40;;;;;;;16.63;3.70;;;25.00;99.90;;;;;;5031079;28;20223;-78
2023/12/07 08:57:11;;;;;;;11.57;3.40;;;24.90;99.90;;;;;;5031124;28;20656;-78
2023/12/07 08:59:45;;;;;;;14.38;4.15;;;24.80;99.90;;;;;;5030784;28;20205;-78
2023/12/07 09:02:19;;;;;;;10.35;3.47;;;24.80;99.90;;;;;;5053870;28;20228;-79
2023/12/07 09:04:53;;;;;;;15.20;4.22;;;24.80;99.90;;;;;;5048522;28;20205;-79
2023/12/07 09:07:24;;;;;;;15.93;4.25;;;24.80;99.90;;;;;;5035748;28;20201;-77
2023/12/07 09:09:55;;;;;;;16.60;4.65;;;24.80;99.90;;;;;;5035712;28;20424;-78
2023/12/07 09:12:26;;;;;;;17.52;3.88;;;24.80;99.90;;;;;;5033502;28;20277;-77
2023/12/07 09:14:57;;;;;;;16.23;3.85;;;24.70;99.90;;;;;;5035103;28;20221;-78
2023/12/07 09:17:30;;;;;;;15.57;4.03;;;24.60;99.90;;;;;;5039514;28;20201;-78
2023/12/07 09:20:17;;;;;;;16.85;4.10;;;24.60;99.90;;;;;;5043227;28;20264;-77
2023/12/07 09:22:49;;;;;;;12.35;3.70;;;24.60;99.90;;;;;;5030838;28;20205;-78
2023/12/07 09:25:27;;;;;;;13.32;4.05;;;24.70;99.90;;;;;;5032499;28;20625;-77
2023/12/07 09:27:59;;;;;;;17.60;4.20;;;24.60;99.90;;;;;;5035929;28;20205;-78
2023/12/07 09:30:30;;;;;;;17.80;4.22;;;24.70;99.90;;;;;;5034730;28;20233;-79
2023/12/07 09:33:09;;;;;;;11.52;2.95;;;24.60;99.90;;;;;;5034061;28;20588;-79
2023/12/07 09:35:43;;;;;;;14.23;3.75;;;24.50;99.90;;;;;;5014984;28;20229;-79
2023/12/07 09:38:14;;;;;;;15.75;3.40;;;24.60;99.90;;;;;;5022234;28;20193;-78
2023/12/07 09:40:45;;;;;;;16.38;3.97;;;24.60;99.90;;;;;;5034448;28;20276;-79
2023/12/07 09:43:17;;;;;;;15.13;3.45;;;24.50;99.90;;;;;;5036569;28;20228;-78
2023/12/07 09:45:50;;;;;;;15.20;3.72;;;24.50;99.90;;;;;;5037996;28;20278;-78
2023/12/07 09:48:24;;;;;;;9.60;3.00;;;24.50;99.90;;;;;;5034060;28;20217;-78
2023/12/07 09:51:02;;;;;;;12.00;3.47;;;24.50;99.90;;;;;;5033926;28;20208;-78
2023/12/07 09:53:36;;;;;;;13.00;3.00;;;24.50;99.90;;;;;;5033879;28;20201;-78
2023/12/07 09:56:08;;;;;;;12.60;3.10;;;24.50;99.90;;;;;;5034408;28;20255;-79
2023/12/07 09:58:42;;;;;;;15.25;3.38;;;24.50;99.90;;;;;;5034688;28;20208;-79
2023/12/07 10:01:16;;;;;;;14.80;3.45;;;24.40;99.90;;;;;;5034380;28;20205;-78
2023/12/07 10:03:50;;;;;;;13.07;3.55;;;24.50;99.90;;;;;;5033446;28;20193;-78
2023/12/07 10:06:21;;;;;;;15.00;3.30;;;24.50;99.90;;;;;;5034298;28;20201;-78
2023/12/07 10:08:52;;;;;;;11.82;3.10;;;24.50;99.90;;;;;;5033788;28;20198;-77
2023/12/07 10:11:24;;;;;;;14.35;3.65;;;24.50;99.90;;;;;;5034221;28;20197;-78
2023/12/07 10:13:57;;;;;;;16.27;3.40;;;24.50;99.90;;;;;;5034150;28;20676;-78
2023/12/07 10:16:35;;;;;;;15.00;3.63;;;24.40;99.90;;;;;;5054626;28;20288;-78
2023/12/07 10:19:21;;;;;;;13.25;3.03;;;24.50;99.90;;;;;;5053508;28;20201;-78
2023/12/07 10:21:52;;;;;;;13.13;3.10;;;24.40;99.90;;;;;;5044041;28;20250;-78
2023/12/07 10:24:25;;;;;;;15.38;3.38;;;24.40;99.90;;;;;;5034826;28;20201;-79
2023/12/07 10:27:00;;;;;;;12.48;2.97;;;24.40;99.90;;;;;;5035105;28;20209;-78
2023/12/07 10:29:33;;;;;;;13.82;3.45;;;24.40;99.90;;;;;;5034977;28;20247;-78
2023/12/07 10:32:05;;;;;;;13.90;3.55;;;24.40;99.90;;;;;;5033522;28;20197;-78
2023/12/07 10:34:39;;;;;;;11.23;3.22;;;24.40;99.90;;;;;;5033348;28;20705;-78
2023/12/07 10:37:11;;;;;;;14.18;3.17;;;24.40;99.90;;;;;;5032558;28;20186;-78
2023/12/07 10:39:42;;;;;;;10.82;3.22;;;24.40;99.90;;;;;;5033459;28;20202;-77
2023/12/07 10:42:15;;;;;;;17.15;3.60;;;24.40;99.90;;;;;;5033058;28;20197;-78
2023/12/07 10:44:47;;;;;;;15.13;3.08;;;24.40;99.90;;;;;;5033448;28;20275;-79
2023/12/07 10:47:20;;;;;;;12.95;3.28;;;24.40;99.90;;;;;;5034816;28;20232;-78
2023/12/07 10:49:59;;;;;;;14.82;3.65;;;24.40;99.90;;;;;;5033194;28;20193;-78
2023/12/07 10:52:34;;;;;;;13.20;3.20;;;24.40;99.90;;;;;;5033044;28;20827;-78
2023/12/07 10:55:31;;;;;;;11.65;2.67;;;24.40;99.90;;;;;;5033010;28;20734;-79
2023/12/07 10:58:03;;;;;;;15.07;3.30;;;24.50;99.90;;;;;;5032566;28;20197;-78
2023/12/07 11:00:35;;;;;;;18.55;3.85;;;24.50;99.90;;;;;;5033147;28;20207;-78
2023/12/07 11:03:06;;;;;;;12.77;3.15;;;24.50;99.90;;;;;;5035789;28;20293;-78
2023/12/07 11:05:40;;;;;;;10.57;2.88;;;24.50;99.90;;;;;;5039871;28;20208;-77
2023/12/07 11:08:14;;;;;;;12.80;3.38;;;24.50;99.90;;;;;;5033019;28;20207;-77
2023/12/07 11:10:53;;;;;;;17.15;3.60;;;24.40;99.90;;;;;;5032489;28;20680;-77
2023/12/07 11:13:30;;;;;;;14.05;3.20;;;24.50;99.90;;;;;;5032428;28;20201;-78
2023/12/07 11:16:01;;;;;;;13.80;3.45;;;24.50;99.90;;;;;;5032335;28;20769;-78
2023/12/07 11:18:32;;;;;;;13.55;3.28;;;24.40;99.90;;;;;;5032436;28;20727;-78
2023/12/07 11:21:06;;;;;;;14.85;3.33;;;24.50;99.90;;;;;;5032137;28;20660;-78
2023/12/07 11:23:39;;;;;;;8.70;2.65;;;24.40;99.90;;;;;;5032304;28;20200;-79
2023/12/07 11:26:10;;;;;;;11.00;2.80;;;24.40;99.90;;;;;;5034051;28;20255;-78
2023/12/07 11:28:42;;;;;;;17.00;3.42;;;24.40;99.90;;;;;;5062479;28;20196;-80
2023/12/07 11:31:13;;;;;;;12.95;3.13;;;24.40;99.90;;;;;;5071768;28;20200;-77
2023/12/07 11:33:45;;;;;;;13.10;3.30;;;24.40;99.90;;;;;;5073803;28;20244;-79
2023/12/07 11:36:18;;;;;;;11.68;2.90;;;24.50;99.90;;;;;;5056877;28;20278;-78
2023/12/07 11:39:23;;;;;;;15.73;3.35;;;24.40;99.90;;;;;;5035777;28;20205;-79
2023/12/07 11:41:56;;;;;;;14.77;3.17;;;24.40;99.90;;;;;;5032120;28;20664;-78
2023/12/07 11:44:37;;;;;;;10.98;3.22;;;24.50;99.90;;;;;;5031860;28;20233;-78
2023/12/07 11:47:08;;;;;;;12.85;3.13;;;24.50;99.90;;;;;;5031767;28;20302;-79
2023/12/07 11:49:41;;;;;;;17.00;3.33;;;24.40;99.90;;;;;;5031660;28;20287;-78
2023/12/07 11:52:22;;;;;;;15.45;3.50;;;24.40;99.90;;;;;;5032009;28;20198;-78
2023/12/07 11:54:53;;;;;;;11.40;2.78;;;24.40;99.90;;;;;;5031452;28;20233;-78
2023/12/07 11:57:24;;;;;;;16.10;3.13;;;24.40;99.90;;;;;;5031671;28;20201;-78
2023/12/07 11:59:55;;;;;;;16.92;3.35;;;24.40;99.90;;;;;;5031520;28;20197;-78
2023/12/07 12:02:26;;;;;;;15.07;3.40;;;24.40;99.90;;;;;;5012090;28;20646;-78
2023/12/07 12:04:57;;;;;;;12.73;3.25;;;24.40;99.90;;;;;;5013157;28;20574;-78
2023/12/07 12:07:31;;;;;;;11.18;2.80;;;24.40;99.90;;;;;;5011674;28;20256;-79
2023/12/07 12:10:04;;;;;;;12.02;3.17;;;24.40;99.90;;;;;;5021597;28;20209;-78
2023/12/07 12:12:37;;;;;;;15.38;3.38;;;24.40;99.90;;;;;;5031321;28;20208;-78
2023/12/07 12:15:09;;;;;;;11.95;2.95;;;24.40;99.90;;;;;;5031587;28;20264;-78
2023/12/07 12:17:40;;;;;;;11.98;3.00;;;24.40;99.90;;;;;;5031421;28;20197;-78
2023/12/07 12:20:17;;;;;;;12.15;3.10;;;24.40;99.90;;;;;;5031841;28;20192;-78
2023/12/07 12:22:49;;;;;;;13.38;2.95;;;24.50;99.90;;;;;;5036463;28;20211;-78
2023/12/07 12:25:20;;;;;;;12.25;3.20;;;24.50;99.90;;;;;;5051206;28;20721;-78
2023/12/07 12:27:52;;;;;;;15.25;3.42;;;24.40;99.90;;;;;;5043825;28;20196;-78
2023/12/07 12:30:23;;;;;;;10.05;2.97;;;24.50;99.90;;;;;;5020850;28;20676;-78
2023/12/07 12:32:54;;;;;;;13.23;3.20;;;24.40;99.90;;;;;;5011073;28;20665;-78
2023/12/07 12:35:25;;;;;;;13.20;2.88;;;24.30;99.90;;;;;;5010970;28;20217;-78
2023/12/07 12:37:58;;;;;;;14.88;3.10;;;24.30;99.90;;;;;;5011302;28;20252;-78
2023/12/07 12:40:32;;;;;;;12.93;3.03;;;24.40;99.90;;;;;;5011014;28;20636;-79
2023/12/07 12:43:03;;;;;;;13.57;3.25;;;24.30;99.90;;;;;;5011461;28;20201;-79
2023/12/07 12:45:35;;;;;;;15.68;3.60;;;24.30;99.90;;;;;;5017676;28;20233;-78
2023/12/07 12:48:07;;;;;;;14.00;3.30;;;24.30;99.90;;;;;;5034505;28;20237;-79
2023/12/07 12:50:39;;;;;;;12.40;2.70;;;24.30;99.90;;;;;;5050869;28;20260;-78
2023/12/07 12:53:13;;;;;;;14.10;3.30;;;24.20;99.90;;;;;;5051106;28;20657;-79
2023/12/07 12:55:46;;;;;;;12.85;3.03;;;24.30;99.90;;;;;;5041747;28;20225;-79
2023/12/07 12:58:20;;;;;;;16.67;3.42;;;24.20;99.90;;;;;;5030670;28;20198;-78
2023/12/07 13:00:51;;;;;;;12.73;2.90;;;24.20;99.90;;;;;;5029907;28;20201;-78